Malvinas Argentinas, Argentina
Current Conditions -  °F | °C
As of 10:00 AM on Friday 19 Dec 2014 (Local Time) from SACO Reporting Station
Clear Clear  
Wind Chill: 84°   Ceiling: Unl
Heat Index: 84°   Visibility: 6mi
Dew Point: 61°   Wind: 7mph
Humidity: 45%   Direction: 340°NNW
Pressure: 29.8"   Gusts: NA
Location:  31.35°S, 63.8°W
Report Text: SACO 191300Z 34006KT CAVOK 29/16 Q1009
Loading
Personal Weather Stations






























Interactive Weather Map New forecast layout! Learn more

10-Day Weather Forecast

Advertisements
Track Severe Weather on mobile